Burghead, United Kingdom
Current Conditions -  °F | °C
As of 11:50 PM on Friday 19 Dec 2014 (Local Time) from EGQK Reporting Station
Rain Showers Rain Showers  
Wind Chill: 27°   Ceiling: Unl
Heat Index: 39°   Visibility: 6mi
Dew Point: 36°   Wind: 32mph
Humidity: 87%   Direction: 280°W
Pressure: 29.62"   Gusts: 44mph
Location:  57.7°N, 3.49°W
Report Text: EGQK 192350Z AUTO 28028G38KT 9999 SHRA SCT020/// SCT050/// 04/02 Q1003
Loading
Personal Weather Stations






























Interactive Weather Map New forecast layout! Learn more

10-Day Weather Forecast

Advertisements
Track Severe Weather on mobile